sensor_id;sensor_type;location;lat;lon;timestamp;pressure;altitude;pressure_sealevel;temperature;humidity
60874;BME280;46715;40.642;-7.920;2022-12-10T00:00:35;95172.97;;;9.40;100.00
60874;BME280;46715;40.642;-7.920;2022-12-10T00:02:36;95176.63;;;9.39;100.00
60874;BME280;46715;40.642;-7.920;2022-12-10T00:04:37;95183.44;;;9.35;100.00
60874;BME280;46715;40.642;-7.920;2022-12-10T00:06:39;95181.41;;;9.32;100.00
60874;BME280;46715;40.642;-7.920;2022-12-10T00:08:40;95183.50;;;9.30;100.00
60874;BME280;46715;40.642;-7.920;2022-12-10T00:10:41;95191.03;;;9.31;100.00
60874;BME280;46715;40.642;-7.920;2022-12-10T00:12:42;95195.00;;;9.29;100.00
60874;BME280;46715;40.642;-7.920;2022-12-10T00:14:43;95203.78;;;9.33;100.00
60874;BME280;46715;40.642;-7.920;2022-12-10T00:16:44;95202.69;;;9.34;100.00
60874;BME280;46715;40.642;-7.920;2022-12-10T00:18:45;95200.09;;;9.34;100.00
60874;BME280;46715;40.642;-7.920;2022-12-10T00:20:46;95205.88;;;9.31;100.00
60874;BME280;46715;40.642;-7.920;2022-12-10T00:22:47;95200.28;;;9.24;100.00
60874;BME280;46715;40.642;-7.920;2022-12-10T00:24:47;95208.94;;;9.19;100.00
60874;BME280;46715;40.642;-7.920;2022-12-10T00:26:48;95205.53;;;9.18;100.00
60874;BME280;46715;40.642;-7.920;2022-12-10T00:28:50;95211.78;;;9.17;100.00
60874;BME280;46715;40.642;-7.920;2022-12-10T00:30:51;95203.72;;;9.19;100.00
60874;BME280;46715;40.642;-7.920;2022-12-10T00:32:52;95201.88;;;9.19;100.00
60874;BME280;46715;40.642;-7.920;2022-12-10T00:34:53;95207.09;;;9.19;100.00
60874;BME280;46715;40.642;-7.920;2022-12-10T00:37:00;95212.78;;;9.21;100.00
60874;BME280;46715;40.642;-7.920;2022-12-10T00:39:00;95207.09;;;9.19;100.00
60874;BME280;46715;40.642;-7.920;2022-12-10T00:41:03;95200.84;;;9.20;100.00
60874;BME280;46715;40.642;-7.920;2022-12-10T00:43:04;95201.31;;;9.23;100.00
60874;BME280;46715;40.642;-7.920;2022-12-10T00:45:05;95214.25;;;9.28;100.00
60874;BME280;46715;40.642;-7.920;2022-12-10T00:47:06;95207.44;;;9.32;100.00
60874;BME280;46715;40.642;-7.920;2022-12-10T00:49:07;95205.19;;;9.25;100.00
60874;BME280;46715;40.642;-7.920;2022-12-10T00:51:13;95215.88;;;9.24;100.00
60874;BME280;46715;40.642;-7.920;2022-12-10T00:53:15;95208.25;;;9.27;100.00
60874;BME280;46715;40.642;-7.920;2022-12-10T00:55:16;95203.84;;;9.28;100.00
60874;BME280;46715;40.642;-7.920;2022-12-10T00:57:17;95200.88;;;9.34;100.00
60874;BME280;46715;40.642;-7.920;2022-12-10T00:59:18;95204.75;;;9.37;100.00
60874;BME280;46715;40.642;-7.920;2022-12-10T01:01:22;95209.66;;;9.38;100.00
60874;BME280;46715;40.642;-7.920;2022-12-10T01:03:25;95203.97;;;9.36;100.00
60874;BME280;46715;40.642;-7.920;2022-12-10T01:05:26;95204.75;;;9.37;100.00
60874;BME280;46715;40.642;-7.920;2022-12-10T01:07:27;95213.91;;;9.34;100.00
60874;BME280;46715;40.642;-7.920;2022-12-10T01:09:30;95220.56;;;9.41;100.00
60874;BME280;46715;40.642;-7.920;2022-12-10T01:11:34;95216.69;;;9.38;100.00
60874;BME280;46715;40.642;-7.920;2022-12-10T01:13:35;95216.69;;;9.38;100.00
60874;BME280;46715;40.642;-7.920;2022-12-10T01:15:39;95217.25;;;9.35;100.00
60874;BME280;46715;40.642;-7.920;2022-12-10T01:17:40;95224.84;;;9.31;100.00
60874;BME280;46715;40.642;-7.920;2022-12-10T01:19:41;95215.81;;;9.29;100.00
60874;BME280;46715;40.642;-7.920;2022-12-10T01:21:42;95228.31;;;9.27;100.00
60874;BME280;46715;40.642;-7.920;2022-12-10T01:23:44;95224.66;;;9.28;100.00
60874;BME280;46715;40.642;-7.920;2022-12-10T01:25:45;95223.41;;;9.25;100.00
60874;BME280;46715;40.642;-7.920;2022-12-10T01:27:46;95227.84;;;9.25;100.00
60874;BME280;46715;40.642;-7.920;2022-12-10T01:29:47;95227.91;;;9.19;100.00
60874;BME280;46715;40.642;-7.920;2022-12-10T01:31:51;95225.38;;;9.14;100.00
60874;BME280;46715;40.642;-7.920;2022-12-10T01:33:53;95225.19;;;9.11;100.00
60874;BME280;46715;40.642;-7.920;2022-12-10T01:35:54;95215.59;;;9.06;100.00
60874;BME280;46715;40.642;-7.920;2022-12-10T01:37:58;95236.41;;;9.06;100.00
60874;BME280;46715;40.642;-7.920;2022-12-10T01:39:59;95234.09;;;9.04;100.00
60874;BME280;46715;40.642;-7.920;2022-12-10T01:42:00;95246.25;;;9.09;100.00
60874;BME280;46715;40.642;-7.920;2022-12-10T01:44:53;95247.31;;;9.08;100.00
60874;BME280;46715;40.642;-7.920;2022-12-10T01:46:39;95253.00;;;9.10;100.00
60874;BME280;46715;40.642;-7.920;2022-12-10T01:48:40;95257.09;;;9.16;100.00
60874;BME280;46715;40.642;-7.920;2022-12-10T01:50:41;95261.22;;;9.17;100.00
60874;BME280;46715;40.642;-7.920;2022-12-10T01:52:41;95255.53;;;9.15;100.00
60874;BME280;46715;40.642;-7.920;2022-12-10T01:54:45;95258.19;;;9.10;100.00
60874;BME280;46715;40.642;-7.920;2022-12-10T01:56:52;95264.25;;;9.06;100.00
60874;BME280;46715;40.642;-7.920;2022-12-10T01:58:56;95266.34;;;9.03;100.00
60874;BME280;46715;40.642;-7.920;2022-12-10T02:03:47;95271.13;;;8.96;100.00
60874;BME280;46715;40.642;-7.920;2022-12-10T02:06:01;95267.69;;;9.01;100.00
60874;BME280;46715;40.642;-7.920;2022-12-10T02:10:15;95269.50;;;9.00;100.00
60874;BME280;46715;40.642;-7.920;2022-12-10T02:12:41;95267.94;;;8.99;100.00
60874;BME280;46715;40.642;-7.920;2022-12-10T02:14:57;95271.53;;;9.03;100.00
60874;BME280;46715;40.642;-7.920;2022-12-10T02:17:04;95273.50;;;9.12;100.00
60874;BME280;46715;40.642;-7.920;2022-12-10T02:19:22;95271.75;;;9.07;100.00
60874;BME280;46715;40.642;-7.920;2022-12-10T02:21:32;95278.00;;;9.06;100.00
60874;BME280;46715;40.642;-7.920;2022-12-10T02:23:38;95291.25;;;9.10;100.00
60874;BME280;46715;40.642;-7.920;2022-12-10T02:28:36;95291.81;;;9.07;100.00
60874;BME280;46715;40.642;-7.920;2022-12-10T02:30:42;95291.25;;;9.10;100.00
60874;BME280;46715;40.642;-7.920;2022-12-10T02:32:45;95298.75;;;9.11;100.00
60874;BME280;46715;40.642;-7.920;2022-12-10T02:34:52;95298.00;;;9.11;100.00
60874;BME280;46715;40.642;-7.920;2022-12-10T02:36:56;95304.53;;;9.08;100.00
60874;BME280;46715;40.642;-7.920;2022-12-10T02:39:07;95303.72;;;9.08;100.00
60874;BME280;46715;40.642;-7.920;2022-12-10T02:41:20;95311.00;;;9.11;100.00
60874;BME280;46715;40.642;-7.920;2022-12-10T02:43:24;95313.38;;;9.07;100.00
60874;BME280;46715;40.642;-7.920;2022-12-10T02:45:29;95314.97;;;9.03;100.00
60874;BME280;46715;40.642;-7.920;2022-12-10T02:47:32;95311.69;;;8.97;100.00
60874;BME280;46715;40.642;-7.920;2022-12-10T02:49:34;95321.31;;;8.97;100.00
60874;BME280;46715;40.642;-7.920;2022-12-10T02:51:36;95315.59;;;8.95;100.00
60874;BME280;46715;40.642;-7.920;2022-12-10T02:53:44;95315.88;;;8.93;100.00
60874;BME280;46715;40.642;-7.920;2022-12-10T02:56:27;95313.00;;;8.95;100.00
60874;BME280;46715;40.642;-7.920;2022-12-10T03:00:50;95314.56;;;8.96;100.00
60874;BME280;46715;40.642;-7.920;2022-12-10T03:08:11;95316.72;;;8.89;100.00
60874;BME280;46715;40.642;-7.920;2022-12-10T03:11:04;95312.28;;;8.89;100.00
60874;BME280;46715;40.642;-7.920;2022-12-10T03:12:48;95320.38;;;8.87;100.00
60874;BME280;46715;40.642;-7.920;2022-12-10T03:14:53;95318.63;;;8.83;100.00
60874;BME280;46715;40.642;-7.920;2022-12-10T03:16:59;95317.63;;;8.79;100.00
60874;BME280;46715;40.642;-7.920;2022-12-10T03:19:07;95321.00;;;8.79;100.00
60874;BME280;46715;40.642;-7.920;2022-12-10T03:21:09;95324.16;;;8.76;100.00
60874;BME280;46715;40.642;-7.920;2022-12-10T03:23:15;95332.44;;;8.78;100.00
60874;BME280;46715;40.642;-7.920;2022-12-10T03:25:23;95339.41;;;8.83;100.00
60874;BME280;46715;40.642;-7.920;2022-12-10T03:27:26;95342.78;;;8.83;100.00
60874;BME280;46715;40.642;-7.920;2022-12-10T03:29:42;95340.13;;;8.89;100.00
60874;BME280;46715;40.642;-7.920;2022-12-10T03:31:45;95349.97;;;8.92;100.00
60874;BME280;46715;40.642;-7.920;2022-12-10T03:33:48;95342.94;;;8.92;100.00
60874;BME280;46715;40.642;-7.920;2022-12-10T03:35:49;95342.66;;;8.94;100.00
60874;BME280;46715;40.642;-7.920;2022-12-10T03:37:51;95351.53;;;8.93;100.00
60874;BME280;46715;40.642;-7.920;2022-12-10T03:39:56;95354.88;;;8.93;100.00
60874;BME280;46715;40.642;-7.920;2022-12-10T03:41:58;95361.47;;;8.85;100.00
60874;BME280;46715;40.642;-7.920;2022-12-10T03:44:00;95351.28;;;8.89;100.00
60874;BME280;46715;40.642;-7.920;2022-12-10T03:46:01;95342.88;;;8.97;100.00
60874;BME280;46715;40.642;-7.920;2022-12-10T03:48:03;95341.41;;;9.10;100.00
60874;BME280;46715;40.642;-7.920;2022-12-10T03:50:04;95353.56;;;8.96;100.00
60874;BME280;46715;40.642;-7.920;2022-12-10T03:52:05;95353.66;;;8.85;100.00
60874;BME280;46715;40.642;-7.920;2022-12-10T03:54:06;95352.50;;;8.73;100.00
60874;BME280;46715;40.642;-7.920;2022-12-10T03:56:07;95349.19;;;8.67;100.00
60874;BME280;46715;40.642;-7.920;2022-12-10T03:58:08;95349.47;;;8.65;100.00
60874;BME280;46715;40.642;-7.920;2022-12-10T04:00:09;95351.31;;;8.65;100.00
60874;BME280;46715;40.642;-7.920;2022-12-10T04:02:13;95350.63;;;8.54;100.00
60874;BME280;46715;40.642;-7.920;2022-12-10T04:04:14;95356.38;;;8.51;100.00
60874;BME280;46715;40.642;-7.920;2022-12-10T04:06:17;95347.09;;;8.45;100.00
60874;BME280;46715;40.642;-7.920;2022-12-10T04:08:19;95354.59;;;8.41;100.00
60874;BME280;46715;40.642;-7.920;2022-12-10T04:10:20;95354.13;;;8.39;100.00
60874;BME280;46715;40.642;-7.920;2022-12-10T04:12:21;95358.03;;;8.36;100.00
60874;BME280;46715;40.642;-7.920;2022-12-10T04:14:22;95352.63;;;8.33;100.00
60874;BME280;46715;40.642;-7.920;2022-12-10T04:16:42;95362.78;;;8.29;100.00
60874;BME280;46715;40.642;-7.920;2022-12-10T04:18:42;95353.44;;;8.28;100.00
60874;BME280;46715;40.642;-7.920;2022-12-10T04:20:43;95356.31;;;8.27;100.00
60874;BME280;46715;40.642;-7.920;2022-12-10T04:23:02;95357.06;;;8.27;100.00
60874;BME280;46715;40.642;-7.920;2022-12-10T04:25:22;95356.00;;;8.33;100.00
60874;BME280;46715;40.642;-7.920;2022-12-10T04:27:41;95362.19;;;8.38;100.00
60874;BME280;46715;40.642;-7.920;2022-12-10T04:29:42;95362.69;;;8.40;100.00
60874;BME280;46715;40.642;-7.920;2022-12-10T04:31:42;95368.41;;;8.42;100.00
60874;BME280;46715;40.642;-7.920;2022-12-10T04:33:43;95375.38;;;8.46;100.00
60874;BME280;46715;40.642;-7.920;2022-12-10T04:35:44;95372.03;;;8.46;100.00
60874;BME280;46715;40.642;-7.920;2022-12-10T04:37:45;95367.81;;;8.50;100.00
60874;BME280;46715;40.642;-7.920;2022-12-10T04:39:46;95357.19;;;8.46;100.00
60874;BME280;46715;40.642;-7.920;2022-12-10T04:41:49;95352.69;;;8.57;100.00
60874;BME280;46715;40.642;-7.920;2022-12-10T04:43:50;95353.44;;;8.58;100.00
60874;BME280;46715;40.642;-7.920;2022-12-10T04:45:50;95357.16;;;8.51;100.00
60874;BME280;46715;40.642;-7.920;2022-12-10T04:47:55;95355.59;;;8.50;100.00
60874;BME280;46715;40.642;-7.920;2022-12-10T04:49:57;95353.00;;;8.50;100.00
60874;BME280;46715;40.642;-7.920;2022-12-10T04:51:58;95350.69;;;8.49;100.00
60874;BME280;46715;40.642;-7.920;2022-12-10T04:54:00;95359.78;;;8.46;100.00
60874;BME280;46715;40.642;-7.920;2022-12-10T04:56:01;95359.50;;;8.48;100.00
60874;BME280;46715;40.642;-7.920;2022-12-10T04:58:02;95363.19;;;8.47;100.00
60874;BME280;46715;40.642;-7.920;2022-12-10T05:00:03;95370.91;;;8.52;100.00
60874;BME280;46715;40.642;-7.920;2022-12-10T05:02:04;95371.34;;;8.59;100.00
60874;BME280;46715;40.642;-7.920;2022-12-10T05:04:07;95368.72;;;8.64;100.00
60874;BME280;46715;40.642;-7.920;2022-12-10T05:06:12;95369.94;;;8.72;100.00
60874;BME280;46715;40.642;-7.920;2022-12-10T05:08:13;95373.53;;;8.76;100.00
60874;BME280;46715;40.642;-7.920;2022-12-10T05:10:15;95374.53;;;8.80;100.00
60874;BME280;46715;40.642;-7.920;2022-12-10T05:12:15;95379.94;;;8.84;100.00
60874;BME280;46715;40.642;-7.920;2022-12-10T05:14:16;95381.72;;;8.89;100.00
60874;BME280;46715;40.642;-7.920;2022-12-10T05:16:19;95392.84;;;8.94;100.00
60874;BME280;46715;40.642;-7.920;2022-12-10T05:18:20;95381.38;;;8.95;100.00
60874;BME280;46715;40.642;-7.920;2022-12-10T05:20:21;95387.34;;;8.96;100.00
60874;BME280;46715;40.642;-7.920;2022-12-10T05:22:22;95389.72;;;8.92;100.00
60874;BME280;46715;40.642;-7.920;2022-12-10T05:24:41;95402.72;;;8.92;100.00
60874;BME280;46715;40.642;-7.920;2022-12-10T05:26:46;95409.31;;;8.84;100.00
60874;BME280;46715;40.642;-7.920;2022-12-10T05:28:53;95419.22;;;8.82;100.00
60874;BME280;46715;40.642;-7.920;2022-12-10T05:30:55;95424.41;;;8.82;100.00
60874;BME280;46715;40.642;-7.920;2022-12-10T05:32:55;95426.78;;;8.79;100.00
60874;BME280;46715;40.642;-7.920;2022-12-10T05:34:56;95436.19;;;8.75;100.00
60874;BME280;46715;40.642;-7.920;2022-12-10T05:36:57;95434.63;;;8.74;100.00
60874;BME280;46715;40.642;-7.920;2022-12-10T05:38:58;95437.72;;;8.76;100.00
60874;BME280;46715;40.642;-7.920;2022-12-10T05:41:03;95442.88;;;8.81;100.00
60874;BME280;46715;40.642;-7.920;2022-12-10T05:43:06;95441.03;;;8.81;100.00
60874;BME280;46715;40.642;-7.920;2022-12-10T05:45:07;95451.97;;;8.83;100.00
60874;BME280;46715;40.642;-7.920;2022-12-10T05:47:08;95455.75;;;8.91;100.00
60874;BME280;46715;40.642;-7.920;2022-12-10T05:49:08;95460.72;;;8.93;100.00
60874;BME280;46715;40.642;-7.920;2022-12-10T05:51:12;95466.97;;;8.92;100.00
60874;BME280;46715;40.642;-7.920;2022-12-10T05:53:13;95468.75;;;8.91;100.00
60874;BME280;46715;40.642;-7.920;2022-12-10T05:55:14;95471.59;;;8.95;100.00
60874;BME280;46715;40.642;-7.920;2022-12-10T05:57:15;95466.13;;;8.96;100.00
60874;BME280;46715;40.642;-7.920;2022-12-10T05:59:15;95459.88;;;8.97;100.00
60874;BME280;46715;40.642;-7.920;2022-12-10T06:01:19;95463.25;;;8.98;100.00
60874;BME280;46715;40.642;-7.920;2022-12-10T06:03:20;95480.06;;;9.06;100.00
60874;BME280;46715;40.642;-7.920;2022-12-10T06:05:21;95485.56;;;9.04;100.00
60874;BME280;46715;40.642;-7.920;2022-12-10T06:07:22;95490.47;;;9.06;100.00
60874;BME280;46715;40.642;-7.920;2022-12-10T06:09:23;95495.44;;;9.02;100.00
60874;BME280;46715;40.642;-7.920;2022-12-10T06:11:24;95495.25;;;8.98;100.00
60874;BME280;46715;40.642;-7.920;2022-12-10T06:13:26;95492.56;;;9.03;100.00
60874;BME280;46715;40.642;-7.920;2022-12-10T06:15:28;95488.94;;;9.04;100.00
60874;BME280;46715;40.642;-7.920;2022-12-10T06:17:29;95478.75;;;9.08;100.00
60874;BME280;46715;40.642;-7.920;2022-12-10T06:19:29;95478.81;;;9.03;100.00
60874;BME280;46715;40.642;-7.920;2022-12-10T06:21:30;95471.31;;;8.96;100.00
60874;BME280;46715;40.642;-7.920;2022-12-10T06:23:31;95483.31;;;8.92;100.00
60874;BME280;46715;40.642;-7.920;2022-12-10T06:25:32;95499.00;;;8.87;100.00
60874;BME280;46715;40.642;-7.920;2022-12-10T06:27:33;95487.31;;;8.84;100.00
60874;BME280;46715;40.642;-7.920;2022-12-10T06:29:34;95495.09;;;8.84;100.00
60874;BME280;46715;40.642;-7.920;2022-12-10T06:31:35;95493.56;;;8.83;100.00
60874;BME280;46715;40.642;-7.920;2022-12-10T06:33:36;95500.59;;;8.83;100.00
60874;BME280;46715;40.642;-7.920;2022-12-10T06:35:37;95501.84;;;8.85;100.00
60874;BME280;46715;40.642;-7.920;2022-12-10T06:37:38;95493.50;;;8.89;100.00
60874;BME280;46715;40.642;-7.920;2022-12-10T06:39:39;95494.72;;;8.96;100.00
60874;BME280;46715;40.642;-7.920;2022-12-10T06:41:39;95499.38;;;8.99;100.00
60874;BME280;46715;40.642;-7.920;2022-12-10T06:43:44;95502.22;;;9.03;100.00
60874;BME280;46715;40.642;-7.920;2022-12-10T06:45:45;95499.88;;;9.01;100.00
60874;BME280;46715;40.642;-7.920;2022-12-10T06:47:46;95498.84;;;9.02;100.00
60874;BME280;46715;40.642;-7.920;2022-12-10T06:49:47;95492.63;;;8.98;100.00
60874;BME280;46715;40.642;-7.920;2022-12-10T06:51:48;95491.06;;;8.97;100.00
60874;BME280;46715;40.642;-7.920;2022-12-10T06:53:49;95491.63;;;8.94;100.00
60874;BME280;46715;40.642;-7.920;2022-12-10T06:55:49;95495.00;;;8.95;100.00
60874;BME280;46715;40.642;-7.920;2022-12-10T06:57:52;95500.19;;;8.95;100.00
60874;BME280;46715;40.642;-7.920;2022-12-10T06:59:53;95501.75;;;8.96;100.00
60874;BME280;46715;40.642;-7.920;2022-12-10T07:01:54;95505.13;;;8.96;100.00
60874;BME280;46715;40.642;-7.920;2022-12-10T07:03:56;95512.66;;;8.98;100.00
60874;BME280;46715;40.642;-7.920;2022-12-10T07:05:58;95501.97;;;8.99;100.00
60874;BME280;46715;40.642;-7.920;2022-12-10T07:07:59;95507.69;;;9.01;100.00
60874;BME280;46715;40.642;-7.920;2022-12-10T07:10:00;95505.84;;;9.02;100.00
60874;BME280;46715;40.642;-7.920;2022-12-10T07:12:01;95517.84;;;8.98;100.00
60874;BME280;46715;40.642;-7.920;2022-12-10T07:14:02;95523.31;;;8.96;100.00
60874;BME280;46715;40.642;-7.920;2022-12-10T07:16:11;95527.53;;;8.92;100.00
60874;BME280;46715;40.642;-7.920;2022-12-10T07:18:12;95533.81;;;8.86;100.00
60874;BME280;46715;40.642;-7.920;2022-12-10T07:20:12;95546.13;;;8.75;100.00
60874;BME280;46715;40.642;-7.920;2022-12-10T07:22:13;95548.81;;;8.65;100.00
60874;BME280;46715;40.642;-7.920;2022-12-10T07:24:17;95556.81;;;8.68;100.00
60874;BME280;46715;40.642;-7.920;2022-12-10T07:26:18;95564.91;;;8.67;100.00
60874;BME280;46715;40.642;-7.920;2022-12-10T07:28:19;95567.50;;;8.67;100.00
60874;BME280;46715;40.642;-7.920;2022-12-10T07:30:19;95575.03;;;8.68;100.00
60874;BME280;46715;40.642;-7.920;2022-12-10T07:32:20;95573.22;;;8.69;100.00
60874;BME280;46715;40.642;-7.920;2022-12-10T07:34:21;95571.94;;;8.66;100.00
60874;BME280;46715;40.642;-7.920;2022-12-10T07:36:23;95569.06;;;8.68;100.00
60874;BME280;46715;40.642;-7.920;2022-12-10T07:38:24;95570.34;;;8.70;100.00
60874;BME280;46715;40.642;-7.920;2022-12-10T07:40:25;95566.69;;;8.72;100.00
60874;BME280;46715;40.642;-7.920;2022-12-10T07:42:26;95564.41;;;8.65;100.00
60874;BME280;46715;40.642;-7.920;2022-12-10T07:44:27;95573.78;;;8.61;100.00
60874;BME280;46715;40.642;-7.920;2022-12-10T07:46:30;95584.44;;;8.59;100.00
60874;BME280;46715;40.642;-7.920;2022-12-10T07:48:31;95586.81;;;8.56;100.00
60874;BME280;46715;40.642;-7.920;2022-12-10T07:50:32;95588.41;;;8.51;100.00
60874;BME280;46715;40.642;-7.920;2022-12-10T07:52:33;95586.84;;;8.50;100.00
60874;BME280;46715;40.642;-7.920;2022-12-10T07:54:34;95592.84;;;8.46;100.00
60874;BME280;46715;40.642;-7.920;2022-12-10T07:56:35;95604.28;;;8.40;100.00
60874;BME280;46715;40.642;-7.920;2022-12-10T07:58:36;95604.59;;;8.33;100.00
60874;BME280;46715;40.642;-7.920;2022-12-10T08:00:37;95613.97;;;8.29;100.00
60874;BME280;46715;40.642;-7.920;2022-12-10T08:02:37;95621.22;;;8.27;100.00
60874;BME280;46715;40.642;-7.920;2022-12-10T08:04:38;95620.41;;;8.31;100.00
60874;BME280;46715;40.642;-7.920;2022-12-10T08:06:39;95625.06;;;8.40;100.00
60874;BME280;46715;40.642;-7.920;2022-12-10T08:08:41;95625.56;;;8.42;100.00
60874;BME280;46715;40.642;-7.920;2022-12-10T08:10:42;95626.06;;;8.44;100.00
60874;BME280;46715;40.642;-7.920;2022-12-10T08:12:43;95628.94;;;8.47;100.00
60874;BME280;46715;40.642;-7.920;2022-12-10T08:14:44;95631.53;;;8.47;100.00
60874;BME280;46715;40.642;-7.920;2022-12-10T08:16:45;95633.63;;;8.45;100.00
60874;BME280;46715;40.642;-7.920;2022-12-10T08:18:46;95640.38;;;8.41;100.00
60874;BME280;46715;40.642;-7.920;2022-12-10T08:20:47;95658.59;;;8.36;100.00
60874;BME280;46715;40.642;-7.920;2022-12-10T08:22:48;95661.47;;;8.34;100.00
60874;BME280;46715;40.642;-7.920;2022-12-10T08:24:49;95669.53;;;8.33;100.00
60874;BME280;46715;40.642;-7.920;2022-12-10T08:26:49;95665.59;;;8.41;100.00
60874;BME280;46715;40.642;-7.920;2022-12-10T08:28:51;95667.38;;;8.50;100.00
60874;BME280;46715;40.642;-7.920;2022-12-10T08:30:52;95657.44;;;8.63;100.00
60874;BME280;46715;40.642;-7.920;2022-12-10T08:32:52;95648.81;;;8.73;100.00
60874;BME280;46715;40.642;-7.920;2022-12-10T08:34:53;95646.22;;;8.73;100.00
60874;BME280;46715;40.642;-7.920;2022-12-10T08:36:55;95643.88;;;8.71;100.00
60874;BME280;46715;40.642;-7.920;2022-12-10T08:38:55;95637.66;;;8.67;100.00
60874;BME280;46715;40.642;-7.920;2022-12-10T08:40:57;95638.44;;;8.67;100.00
60874;BME280;46715;40.642;-7.920;2022-12-10T08:42:57;95640.75;;;8.74;100.00
60874;BME280;46715;40.642;-7.920;2022-12-10T08:45:02;95649.06;;;8.76;100.00
60874;BME280;46715;40.642;-7.920;2022-12-10T08:47:02;95639.88;;;8.84;100.00
60874;BME280;46715;40.642;-7.920;2022-12-10T08:49:04;95642.22;;;8.85;100.00
60874;BME280;46715;40.642;-7.920;2022-12-10T08:51:06;95641.16;;;8.92;100.00
60874;BME280;46715;40.642;-7.920;2022-12-10T08:53:07;95638.00;;;8.95;100.00
60874;BME280;46715;40.642;-7.920;2022-12-10T08:55:08;95642.66;;;8.98;100.00
60874;BME280;46715;40.642;-7.920;2022-12-10T08:57:09;95650.13;;;9.10;100.00
60874;BME280;46715;40.642;-7.920;2022-12-10T08:59:10;95650.16;;;9.04;100.00
60874;BME280;46715;40.642;-7.920;2022-12-10T09:01:13;95663.41;;;9.08;100.00
60874;BME280;46715;40.642;-7.920;2022-12-10T09:03:15;95664.94;;;9.09;100.00
60874;BME280;46715;40.642;-7.920;2022-12-10T09:05:17;95681.78;;;9.17;100.00
60874;BME280;46715;40.642;-7.920;2022-12-10T09:07:18;95680.91;;;9.32;100.00
60874;BME280;46715;40.642;-7.920;2022-12-10T09:09:19;95682.38;;;9.43;100.00
60874;BME280;46715;40.642;-7.920;2022-12-10T09:11:27;95689.88;;;9.50;100.00
60874;BME280;46715;40.642;-7.920;2022-12-10T09:13:28;95696.38;;;9.47;100.00
60874;BME280;46715;40.642;-7.920;2022-12-10T09:15:29;95697.38;;;9.57;100.00
60874;BME280;46715;40.642;-7.920;2022-12-10T09:17:30;95712.31;;;9.70;100.00
60874;BME280;46715;40.642;-7.920;2022-12-10T09:19:31;95713.34;;;9.74;100.00
60874;BME280;46715;40.642;-7.920;2022-12-10T09:21:32;95717.22;;;9.77;100.00
60874;BME280;46715;40.642;-7.920;2022-12-10T09:23:33;95710.53;;;9.70;100.00
60874;BME280;46715;40.642;-7.920;2022-12-10T09:25:35;95714.38;;;9.73;100.00
60874;BME280;46715;40.642;-7.920;2022-12-10T09:27:37;95717.94;;;9.82;100.00
60874;BME280;46715;40.642;-7.920;2022-12-10T09:29:38;95722.59;;;9.85;100.00
60874;BME280;46715;40.642;-7.920;2022-12-10T09:31:39;95726.47;;;9.88;100.00
60874;BME280;46715;40.642;-7.920;2022-12-10T09:33:40;95729.19;;;9.78;100.00
60874;BME280;46715;40.642;-7.920;2022-12-10T09:35:41;95728.41;;;9.77;100.00
60874;BME280;46715;40.642;-7.920;2022-12-10T09:37:45;95723.81;;;9.69;100.00
60874;BME280;46715;40.642;-7.920;2022-12-10T09:39:46;95724.03;;;9.72;100.00
60874;BME280;46715;40.642;-7.920;2022-12-10T09:44:21;95724.25;;;9.76;100.00
60874;BME280;46715;40.642;-7.920;2022-12-10T09:46:52;95723.25;;;9.72;100.00
60874;BME280;46715;40.642;-7.920;2022-12-10T09:52:00;95740.03;;;10.14;100.00
60874;BME280;46715;40.642;-7.920;2022-12-10T09:54:04;95731.78;;;10.31;100.00
60874;BME280;46715;40.642;-7.920;2022-12-10T09:56:21;95731.28;;;10.34;100.00
60874;BME280;46715;40.642;-7.920;2022-12-10T09:58:26;95751.28;;;10.39;100.00
60874;BME280;46715;40.642;-7.920;2022-12-10T10:00:35;95760.31;;;10.47;100.00
60874;BME280;46715;40.642;-7.920;2022-12-10T10:02:37;95760.84;;;10.44;100.00
60874;BME280;46715;40.642;-7.920;2022-12-10T10:04:39;95763.81;;;10.37;100.00
60874;BME280;46715;40.642;-7.920;2022-12-10T10:06:39;95757.47;;;10.43;100.00
60874;BME280;46715;40.642;-7.920;2022-12-10T10:09:09;95764.47;;;10.48;100.00
60874;BME280;46715;40.642;-7.920;2022-12-10T10:11:18;95768.34;;;10.50;100.00
60874;BME280;46715;40.642;-7.920;2022-12-10T10:15:31;95790.47;;;10.53;100.00
60874;BME280;46715;40.642;-7.920;2022-12-10T10:17:35;95794.94;;;10.52;100.00
60874;BME280;46715;40.642;-7.920;2022-12-10T10:19:38;95807.28;;;10.66;100.00
60874;BME280;46715;40.642;-7.920;2022-12-10T10:21:41;95807.84;;;10.63;100.00
60874;BME280;46715;40.642;-7.920;2022-12-10T10:23:44;95816.00;;;10.56;100.00
60874;BME280;46715;40.642;-7.920;2022-12-10T10:25:45;95821.91;;;10.62;100.00
60874;BME280;46715;40.642;-7.920;2022-12-10T10:27:46;95820.09;;;10.62;100.00
60874;BME280;46715;40.642;-7.920;2022-12-10T10:29:51;95804.19;;;10.64;100.00
60874;BME280;46715;40.642;-7.920;2022-12-10T10:32:16;95801.44;;;10.74;100.00
60874;BME280;46715;40.642;-7.920;2022-12-10T10:34:22;95808.38;;;10.84;100.00
60874;BME280;46715;40.642;-7.920;2022-12-10T10:36:32;95820.41;;;10.80;100.00
60874;BME280;46715;40.642;-7.920;2022-12-10T10:38:33;95811.44;;;10.67;100.00
60874;BME280;46715;40.642;-7.920;2022-12-10T10:40:42;95795.69;;;10.53;100.00
60874;BME280;46715;40.642;-7.920;2022-12-10T10:42:45;95800.78;;;10.39;100.00
60874;BME280;46715;40.642;-7.920;2022-12-10T10:44:46;95789.66;;;10.28;100.00
60874;BME280;46715;40.642;-7.920;2022-12-10T10:46:49;95793.09;;;10.23;100.00
60874;BME280;46715;40.642;-7.920;2022-12-10T10:48:50;95796.63;;;10.09;100.00
60874;BME280;46715;40.642;-7.920;2022-12-10T10:51:05;95801.34;;;10.06;100.00
60874;BME280;46715;40.642;-7.920;2022-12-10T10:53:52;95812.03;;;10.05;100.00
60874;BME280;46715;40.642;-7.920;2022-12-10T10:56:09;95803.94;;;10.06;100.00
60874;BME280;46715;40.642;-7.920;2022-12-10T10:58:20;95792.53;;;10.27;100.00
60874;BME280;46715;40.642;-7.920;2022-12-10T11:00:22;95778.97;;;10.30;100.00
60874;BME280;46715;40.642;-7.920;2022-12-10T11:02:30;95777.69;;;10.27;100.00
60874;BME280;46715;40.642;-7.920;2022-12-10T11:04:37;95763.09;;;10.55;100.00
60874;BME280;46715;40.642;-7.920;2022-12-10T11:06:45;95768.81;;;10.77;100.00